Time;durP1;ratioP1;P1;durP2;ratioP2;P2;SDS_P1;SDS_P2;PMS_P1;PMS_P2;Temp;Humidity;BMP_temperature;BMP_pressure;BME280_temperature;BME280_humidity;BME280_pressure;Samples;Min_cycle;Max_cycle;Signal;HPM_P1;HPM_P2
2022/04/06 00:00:43;;;;;;;5.93;5.43;;;10.00;94.50;;;;;;5055695;28;20178;-45
2022/04/06 00:03:09;;;;;;;7.07;6.47;;;10.00;94.50;;;;;;5055659;28;20413;-45
2022/04/06 00:05:35;;;;;;;7.00;6.40;;;10.00;94.50;;;;;;5055960;28;20433;-45
2022/04/06 00:08:01;;;;;;;6.57;5.97;;;10.00;94.50;;;;;;5055542;28;20429;-45
2022/04/06 00:10:28;;;;;;;7.40;6.80;;;10.10;94.90;;;;;;5054950;28;20269;-45
2022/04/06 00:12:54;;;;;;;7.20;6.50;;;10.00;94.60;;;;;;5055453;28;20433;-45
2022/04/06 00:15:21;;;;;;;7.70;6.90;;;10.00;94.70;;;;;;5055299;28;20405;-45
2022/04/06 00:17:46;;;;;;;8.27;7.47;;;10.10;94.80;;;;;;5054776;28;20544;-45
2022/04/06 00:20:12;;;;;;;6.10;5.60;;;10.00;94.90;;;;;;5055903;28;20747;-44
2022/04/06 00:22:39;;;;;;;6.50;5.90;;;10.00;95.00;;;;;;5054545;28;20269;-45
2022/04/06 00:25:05;;;;;;;8.13;6.60;;;10.00;95.00;;;;;;5055342;28;20476;-45
2022/04/06 00:27:31;;;;;;;6.70;6.10;;;10.00;95.00;;;;;;5056074;28;20715;-45
2022/04/06 00:29:58;;;;;;;6.77;5.97;;;10.00;95.00;;;;;;5056380;28;20453;-45
2022/04/06 00:32:24;;;;;;;6.30;5.73;;;10.10;95.10;;;;;;5055756;28;20486;-44
2022/04/06 00:37:34;;;;;;;7.30;6.60;;;10.10;95.10;;;;;;5054589;28;20929;-50
2022/04/06 00:40:00;;;;;;;8.10;6.57;;;10.10;95.10;;;;;;5054172;28;20420;-44
2022/04/06 00:42:25;;;;;;;6.03;5.50;;;10.10;95.10;;;;;;5054535;28;20257;-45
2022/04/06 00:44:51;;;;;;;7.10;6.50;;;10.10;95.10;;;;;;5054028;28;20549;-45
2022/04/06 00:47:17;;;;;;;5.97;5.47;;;10.10;95.20;;;;;;5054382;28;20182;-45
2022/04/06 00:49:42;;;;;;;6.67;6.07;;;10.10;95.20;;;;;;5053351;28;20190;-45
2022/04/06 00:52:08;;;;;;;7.07;6.47;;;10.10;95.20;;;;;;5054272;28;20195;-45
2022/04/06 00:54:36;;;;;;;7.47;6.87;;;10.10;95.20;;;;;;5054244;28;20192;-45
2022/04/06 00:57:01;;;;;;;8.43;6.93;;;10.10;95.20;;;;;;5054329;28;20483;-45
2022/04/06 00:59:29;;;;;;;7.17;6.47;;;10.10;95.30;;;;;;5054482;28;20828;-45
2022/04/06 01:01:57;;;;;;;7.37;6.73;;;10.00;95.30;;;;;;5055147;28;20178;-45
2022/04/06 01:04:22;;;;;;;6.97;6.33;;;10.00;95.40;;;;;;5054671;28;20424;-45
2022/04/06 01:06:49;;;;;;;7.10;6.40;;;10.00;95.40;;;;;;5054812;28;20467;-45
2022/04/06 01:09:16;;;;;;;7.00;6.40;;;10.00;95.50;;;;;;5054596;28;20284;-45
2022/04/06 01:11:44;;;;;;;7.70;6.67;;;10.00;95.50;;;;;;5054869;28;20912;-45
2022/04/06 01:14:10;;;;;;;6.70;6.10;;;10.00;95.60;;;;;;5055787;28;20417;-45
2022/04/06 01:16:36;;;;;;;6.80;6.20;;;10.00;95.70;;;;;;5053278;28;20472;-45
2022/04/06 01:19:02;;;;;;;7.00;6.40;;;10.00;95.70;;;;;;5053721;28;20413;-45
2022/04/06 01:21:27;;;;;;;8.13;7.00;;;9.90;96.30;;;;;;5057470;28;20647;-44
2022/04/06 01:23:53;;;;;;;6.73;6.13;;;9.90;96.40;;;;;;5059002;28;20205;-45
2022/04/06 01:26:19;;;;;;;7.00;6.40;;;9.90;96.40;;;;;;5057832;28;20273;-45
2022/04/06 01:28:45;;;;;;;8.40;7.37;;;9.90;96.40;;;;;;5058525;28;20448;-45
2022/04/06 01:31:11;;;;;;;8.50;7.73;;;9.90;96.50;;;;;;5059567;28;20515;-44
2022/04/06 01:36:58;;;;;;;9.53;7.30;;;9.80;96.50;;;;;;5058403;28;20216;-44
2022/04/06 01:39:24;;;;;;;6.83;6.23;;;9.80;96.40;;;;;;5058558;28;20535;-45
2022/04/06 01:41:50;;;;;;;7.87;6.30;;;9.80;96.40;;;;;;5058598;28;20255;-44
2022/04/06 01:44:15;;;;;;;6.73;6.03;;;9.80;96.50;;;;;;5057414;28;20298;-44
2022/04/06 01:46:41;;;;;;;7.27;6.57;;;9.80;96.50;;;;;;5057986;28;20435;-45
2022/04/06 01:54:35;;;;;;;6.23;5.73;;;9.80;96.40;;;;;;5057353;28;20427;-44
2022/04/06 01:57:02;;;;;;;6.37;5.87;;;9.80;96.40;;;;;;5057101;28;20562;-45
2022/04/06 01:59:28;;;;;;;7.87;7.17;;;9.80;96.40;;;;;;5057132;28;20189;-44
2022/04/06 02:01:54;;;;;;;7.87;6.90;;;9.80;96.50;;;;;;5055746;28;20416;-45
2022/04/06 02:04:20;;;;;;;7.53;6.90;;;9.80;96.50;;;;;;5055688;28;20468;-45
2022/04/06 02:06:46;;;;;;;6.53;5.93;;;9.80;96.60;;;;;;5055240;28;20457;-44
2022/04/06 02:09:11;;;;;;;7.37;6.70;;;9.80;96.70;;;;;;5056464;28;20485;-45
2022/04/06 02:11:38;;;;;;;8.60;7.70;;;9.80;96.70;;;;;;5056756;28;20182;-44
2022/04/06 02:14:05;;;;;;;8.10;7.40;;;9.80;96.80;;;;;;5056657;28;20182;-45
2022/04/06 02:16:32;;;;;;;8.50;7.60;;;9.80;96.80;;;;;;5056046;28;20467;-45
2022/04/06 02:18:58;;;;;;;7.60;7.00;;;9.80;96.90;;;;;;5056661;28;20439;-45
2022/04/06 02:21:23;;;;;;;8.50;7.70;;;9.80;96.90;;;;;;5057274;28;20429;-44
2022/04/06 02:23:49;;;;;;;7.40;6.70;;;9.80;96.90;;;;;;5057564;28;20434;-45
2022/04/06 02:26:14;;;;;;;7.70;7.00;;;9.80;96.90;;;;;;5057265;28;20525;-45
2022/04/06 02:28:41;;;;;;;8.80;7.30;;;9.80;96.90;;;;;;5056337;28;20189;-45
2022/04/06 02:31:06;;;;;;;7.60;6.90;;;9.80;96.90;;;;;;5057164;28;20179;-45
2022/04/06 02:33:32;;;;;;;8.20;7.50;;;9.80;96.90;;;;;;5057126;28;20443;-45
2022/04/06 02:35:58;;;;;;;7.37;6.77;;;9.80;96.90;;;;;;5057063;28;20231;-44
2022/04/06 02:38:23;;;;;;;7.60;7.00;;;9.80;96.90;;;;;;5056586;28;20245;-45
2022/04/06 02:40:49;;;;;;;8.17;7.37;;;9.80;96.80;;;;;;5057321;28;20444;-45
2022/04/06 02:43:14;;;;;;;9.33;8.43;;;9.80;96.80;;;;;;5056097;28;20185;-45
2022/04/06 02:45:40;;;;;;;9.33;6.40;;;9.90;96.90;;;;;;5056284;28;20654;-45
2022/04/06 02:48:06;;;;;;;7.37;6.73;;;9.80;96.80;;;;;;5057808;28;20201;-44
2022/04/06 02:50:32;;;;;;;7.67;6.97;;;9.80;96.80;;;;;;5055496;28;20187;-45
2022/04/06 02:52:58;;;;;;;9.03;7.37;;;9.80;96.80;;;;;;5055639;28;20177;-45
2022/04/06 02:55:23;;;;;;;7.83;7.13;;;9.80;96.80;;;;;;5056664;28;20503;-45
2022/04/06 02:57:49;;;;;;;8.70;7.90;;;9.90;96.90;;;;;;5057291;28;20477;-45
2022/04/06 03:00:15;;;;;;;8.70;7.80;;;9.80;96.80;;;;;;5057480;28;20328;-45
2022/04/06 03:02:42;;;;;;;8.10;7.40;;;9.90;96.80;;;;;;5055052;28;20482;-45
2022/04/06 03:05:08;;;;;;;9.33;8.53;;;9.80;96.80;;;;;;5055805;28;20448;-44
2022/04/06 03:07:33;;;;;;;8.80;7.90;;;9.90;96.80;;;;;;5056463;28;20992;-45
2022/04/06 03:10:01;;;;;;;9.20;8.40;;;9.90;96.80;;;;;;5056756;28;20539;-44
2022/04/06 03:12:26;;;;;;;9.70;8.73;;;9.80;96.80;;;;;;5053888;28;20186;-45
2022/04/06 03:14:52;;;;;;;8.83;8.03;;;9.80;96.80;;;;;;5055237;28;20445;-44
2022/04/06 03:17:17;;;;;;;8.73;8.03;;;9.80;96.80;;;;;;5055021;28;20301;-44
2022/04/06 03:19:43;;;;;;;8.90;8.20;;;9.80;96.80;;;;;;5056286;28;20264;-45
2022/04/06 03:22:09;;;;;;;8.63;7.83;;;9.80;96.90;;;;;;5055961;28;20184;-45
2022/04/06 03:24:35;;;;;;;8.43;7.73;;;9.80;96.90;;;;;;5056795;28;20508;-45
2022/04/06 03:27:01;;;;;;;7.87;7.10;;;9.80;96.90;;;;;;5056826;28;20563;-44
2022/04/06 03:29:26;;;;;;;8.60;7.90;;;9.80;97.00;;;;;;5055843;28;20196;-43
2022/04/06 03:31:52;;;;;;;8.37;7.00;;;9.70;96.90;;;;;;5054631;28;20411;-45
2022/04/06 03:34:18;;;;;;;8.20;7.40;;;9.70;96.90;;;;;;5055691;28;20531;-45
2022/04/06 03:36:43;;;;;;;8.50;7.20;;;9.70;96.90;;;;;;5056083;28;20546;-45
2022/04/06 03:39:09;;;;;;;7.47;6.77;;;9.70;96.90;;;;;;5055561;28;20268;-45
2022/04/06 03:41:35;;;;;;;8.37;7.60;;;9.70;96.90;;;;;;5054153;28;20606;-45
2022/04/06 03:44:00;;;;;;;7.50;6.90;;;9.70;97.00;;;;;;5051989;28;20583;-44
2022/04/06 03:46:26;;;;;;;7.50;6.80;;;9.80;97.00;;;;;;5054502;28;20569;-44
2022/04/06 03:48:51;;;;;;;8.17;6.93;;;9.80;97.00;;;;;;5053939;28;20425;-45
2022/04/06 03:51:17;;;;;;;7.53;6.63;;;9.70;97.00;;;;;;5052426;28;20185;-43
2022/04/06 03:53:43;;;;;;;7.30;6.60;;;9.80;97.10;;;;;;5054504;28;20504;-45
2022/04/06 03:56:08;;;;;;;7.60;6.90;;;9.80;97.10;;;;;;5054386;28;20174;-45
2022/04/06 03:58:34;;;;;;;8.30;7.37;;;9.70;97.10;;;;;;5054773;28;20240;-45
2022/04/06 04:00:59;;;;;;;7.63;6.73;;;9.70;97.20;;;;;;5055280;28;20395;-45
2022/04/06 04:03:25;;;;;;;6.90;6.30;;;9.70;97.20;;;;;;5054186;28;20460;-48
2022/04/06 04:05:51;;;;;;;7.27;6.57;;;9.80;97.30;;;;;;5054255;28;20178;-47
2022/04/06 04:08:17;;;;;;;6.57;6.00;;;9.80;97.30;;;;;;5054249;28;20205;-48
2022/04/06 04:10:42;;;;;;;6.97;6.37;;;9.80;97.20;;;;;;5054149;28;20595;-48
2022/04/06 04:13:08;;;;;;;7.00;6.40;;;9.80;97.20;;;;;;5055328;28;20492;-47
2022/04/06 04:15:33;;;;;;;7.40;6.60;;;9.80;97.10;;;;;;5055025;28;20599;-48
2022/04/06 04:17:59;;;;;;;8.10;7.30;;;9.80;97.10;;;;;;5053632;28;20508;-48
2022/04/06 04:20:25;;;;;;;8.53;6.57;;;9.90;97.10;;;;;;5054536;28;20320;-47
2022/04/06 04:22:51;;;;;;;6.10;5.60;;;9.90;97.10;;;;;;5054819;28;20434;-47
2022/04/06 04:25:16;;;;;;;7.90;7.23;;;9.90;97.10;;;;;;5050809;28;20236;-48
2022/04/06 04:27:42;;;;;;;7.87;7.07;;;9.90;97.10;;;;;;5051846;28;20530;-48
2022/04/06 04:30:08;;;;;;;7.53;6.83;;;9.90;97.10;;;;;;5051039;28;20181;-48
2022/04/06 04:32:34;;;;;;;7.37;6.60;;;9.90;97.10;;;;;;5050807;28;20201;-48
2022/04/06 04:35:05;;;;;;;7.03;6.43;;;9.90;97.10;;;;;;5048418;28;20773;-48
2022/04/06 04:37:31;;;;;;;7.87;7.10;;;9.90;97.10;;;;;;5047400;28;20217;-47
2022/04/06 04:39:57;;;;;;;6.83;6.10;;;9.90;97.10;;;;;;5049828;28;20420;-48
2022/04/06 04:42:23;;;;;;;7.73;6.30;;;9.90;97.00;;;;;;5048746;28;20196;-47
2022/04/06 04:44:48;;;;;;;7.23;6.53;;;9.90;97.00;;;;;;5047708;28;20424;-48
2022/04/06 04:47:14;;;;;;;7.23;6.63;;;9.90;97.00;;;;;;5046562;28;20457;-48
2022/04/06 04:49:42;;;;;;;6.33;5.80;;;9.90;97.00;;;;;;5046961;28;20197;-48
2022/04/06 04:52:08;;;;;;;6.73;6.03;;;9.90;97.00;;;;;;5045340;28;20247;-48
2022/04/06 04:54:33;;;;;;;8.20;7.47;;;9.90;97.00;;;;;;5050427;28;20529;-47
2022/04/06 04:56:59;;;;;;;9.63;7.37;;;9.90;97.00;;;;;;5050095;28;20217;-48
2022/04/06 04:59:25;;;;;;;7.07;6.47;;;9.90;97.00;;;;;;5050583;28;20203;-47
2022/04/06 05:01:51;;;;;;;8.00;7.30;;;9.90;97.00;;;;;;5053887;28;20663;-48
2022/04/06 05:04:17;;;;;;;6.30;5.80;;;9.90;97.00;;;;;;5050938;28;20839;-47
2022/04/06 05:06:43;;;;;;;6.90;6.30;;;10.00;96.40;;;;;;5050773;28;20481;-48
2022/04/06 05:09:09;;;;;;;6.90;6.30;;;9.90;96.90;;;;;;5051505;28;20189;-48
2022/04/06 05:11:34;;;;;;;6.40;5.87;;;9.90;96.90;;;;;;5049878;28;20436;-47
2022/04/06 05:14:00;;;;;;;7.40;6.70;;;10.00;96.30;;;;;;5052233;28;20175;-48
2022/04/06 05:16:26;;;;;;;6.80;6.20;;;10.00;96.30;;;;;;5050683;28;20633;-48
2022/04/06 05:18:54;;;;;;;7.10;6.50;;;10.00;96.20;;;;;;5047056;28;20186;-48
2022/04/06 05:21:19;;;;;;;7.50;6.90;;;10.00;96.20;;;;;;5047600;28;20178;-47
2022/04/06 05:23:45;;;;;;;7.33;6.63;;;10.00;96.20;;;;;;5048981;28;20939;-48
2022/04/06 05:26:10;;;;;;;7.37;6.67;;;10.00;96.20;;;;;;5051386;28;20564;-49
2022/04/06 05:28:36;;;;;;;8.33;7.53;;;10.00;96.10;;;;;;5051510;28;20279;-48
2022/04/06 05:31:02;;;;;;;7.47;6.77;;;10.00;96.20;;;;;;5049101;28;20214;-47
2022/04/06 05:33:27;;;;;;;6.70;6.13;;;10.00;96.10;;;;;;5048376;28;20355;-48
2022/04/06 05:35:53;;;;;;;8.60;7.07;;;10.10;96.20;;;;;;5033193;28;20206;-48
2022/04/06 05:38:19;;;;;;;8.47;7.67;;;10.10;96.10;;;;;;5046292;28;20333;-47
2022/04/06 05:40:45;;;;;;;8.13;7.43;;;10.10;96.10;;;;;;5047249;28;20648;-48
2022/04/06 05:43:11;;;;;;;8.10;7.40;;;10.10;96.10;;;;;;5044703;28;20420;-48
2022/04/06 05:45:36;;;;;;;7.50;6.80;;;10.10;96.10;;;;;;5038266;28;20529;-48
2022/04/06 05:48:04;;;;;;;7.70;6.90;;;10.10;96.10;;;;;;5028174;28;20194;-48
2022/04/06 05:50:29;;;;;;;8.03;7.33;;;10.20;96.10;;;;;;5024759;28;20195;-48
2022/04/06 05:52:55;;;;;;;8.43;7.67;;;10.20;96.10;;;;;;5023847;28;20552;-48
2022/04/06 05:55:21;;;;;;;7.67;7.00;;;10.20;96.10;;;;;;5025107;28;20539;-48
2022/04/06 05:57:46;;;;;;;7.83;7.20;;;10.20;96.00;;;;;;5022319;28;20277;-47
2022/04/06 06:00:14;;;;;;;7.17;6.57;;;10.30;96.00;;;;;;5024460;28;20175;-48
2022/04/06 06:02:40;;;;;;;8.47;7.67;;;10.30;96.00;;;;;;5023685;28;20284;-47
2022/04/06 06:05:07;;;;;;;8.03;7.33;;;10.30;95.90;;;;;;5023778;28;20423;-48
2022/04/06 06:07:32;;;;;;;8.50;7.80;;;10.30;95.90;;;;;;5023096;28;20303;-47
2022/04/06 06:09:58;;;;;;;8.40;7.67;;;10.30;95.90;;;;;;5028399;28;20508;-48
2022/04/06 06:12:24;;;;;;;8.40;7.70;;;10.40;96.00;;;;;;5027881;28;20425;-48
2022/04/06 06:14:49;;;;;;;8.00;7.30;;;10.40;96.00;;;;;;5026966;28;20206;-48
2022/04/06 06:17:15;;;;;;;7.27;6.67;;;10.50;96.00;;;;;;5028234;28;20601;-48
2022/04/06 06:19:41;;;;;;;7.60;6.67;;;10.50;95.90;;;;;;5029149;28;20183;-48
2022/04/06 06:22:06;;;;;;;8.50;7.77;;;10.60;95.90;;;;;;5028869;28;20192;-48
2022/04/06 06:24:32;;;;;;;7.90;7.20;;;10.60;95.80;;;;;;5028643;28;20330;-48
2022/04/06 06:26:58;;;;;;;7.93;7.20;;;10.60;95.70;;;;;;5028234;28;20247;-47
2022/04/06 06:29:24;;;;;;;7.57;6.90;;;10.70;95.70;;;;;;5028160;28;20715;-47
2022/04/06 06:31:49;;;;;;;8.73;7.93;;;10.70;95.70;;;;;;5028875;28;20508;-48
2022/04/06 06:34:15;;;;;;;6.93;6.43;;;10.70;95.60;;;;;;5029696;28;20257;-48
2022/04/06 06:36:40;;;;;;;11.73;8.00;;;10.70;95.50;;;;;;5029006;28;20222;-47
2022/04/06 06:39:06;;;;;;;7.10;6.50;;;10.70;95.40;;;;;;5030690;28;20186;-47
2022/04/06 06:41:33;;;;;;;7.80;7.00;;;10.70;95.40;;;;;;5028147;28;20179;-47
2022/04/06 06:43:58;;;;;;;7.00;6.40;;;10.80;95.50;;;;;;5027239;28;20183;-47
2022/04/06 06:46:24;;;;;;;5.63;5.13;;;10.80;95.50;;;;;;5027565;28;20699;-47
2022/04/06 06:48:51;;;;;;;6.43;5.83;;;10.80;95.40;;;;;;5029161;28;20171;-48
2022/04/06 06:51:17;;;;;;;5.47;4.97;;;10.80;95.40;;;;;;5026531;28;20483;-48
2022/04/06 06:53:43;;;;;;;6.20;5.70;;;10.80;95.30;;;;;;5036331;28;21008;-47
2022/04/06 06:56:09;;;;;;;7.10;5.40;;;10.80;95.20;;;;;;5049586;28;20439;-48
2022/04/06 06:58:35;;;;;;;5.43;4.93;;;10.80;95.20;;;;;;5048703;28;20468;-48
2022/04/06 07:01:01;;;;;;;5.73;5.17;;;10.90;95.20;;;;;;5049992;28;20424;-47
2022/04/06 07:03:27;;;;;;;5.73;5.23;;;10.90;95.20;;;;;;5049136;28;20209;-48
2022/04/06 07:05:53;;;;;;;6.20;5.70;;;10.90;95.20;;;;;;5050332;28;20499;-48
2022/04/06 07:08:18;;;;;;;6.30;5.57;;;10.90;95.20;;;;;;5049951;28;20861;-47
2022/04/06 07:10:45;;;;;;;4.93;4.53;;;11.00;95.20;;;;;;5049836;28;20429;-48
2022/04/06 07:13:12;;;;;;;6.07;5.53;;;11.00;95.10;;;;;;5048967;28;20443;-48
2022/04/06 07:15:39;;;;;;;5.47;4.97;;;11.00;95.00;;;;;;5049703;28;20544;-47
2022/04/06 07:18:07;;;;;;;5.57;5.07;;;11.10;95.00;;;;;;5049733;28;20745;-47
2022/04/06 07:20:35;;;;;;;5.50;5.00;;;11.10;94.90;;;;;;5049100;28;20408;-48
2022/04/06 07:23:21;;;;;;;4.97;4.47;;;11.10;94.80;;;;;;5048517;28;20428;-47
2022/04/06 07:25:46;;;;;;;4.67;4.27;;;11.20;94.80;;;;;;5053287;28;20893;-47
2022/04/06 07:28:12;;;;;;;5.30;4.80;;;11.30;94.70;;;;;;5052958;28;20432;-52
2022/04/06 07:30:38;;;;;;;5.40;4.90;;;11.40;94.60;;;;;;5052153;28;20225;-47
2022/04/06 07:33:03;;;;;;;4.73;4.33;;;11.50;94.50;;;;;;5050762;28;20185;-47
2022/04/06 07:35:31;;;;;;;6.47;5.87;;;11.50;94.30;;;;;;5048316;28;20263;-48
2022/04/06 07:37:57;;;;;;;5.07;4.57;;;11.60;94.10;;;;;;5049862;28;20459;-48
2022/04/06 07:40:23;;;;;;;3.60;3.30;;;11.60;94.00;;;;;;5046965;28;20439;-47
2022/04/06 07:42:50;;;;;;;4.77;3.70;;;11.80;94.10;;;;;;5046814;28;20586;-48
2022/04/06 07:45:18;;;;;;;4.40;4.00;;;12.00;93.90;;;;;;5047909;28;20417;-47
2022/04/06 07:47:48;;;;;;;5.33;3.40;;;12.20;93.70;;;;;;5050152;28;20459;-48
2022/04/06 07:50:14;;;;;;;4.10;3.70;;;12.50;93.40;;;;;;5049180;28;20532;-48
2022/04/06 07:52:40;;;;;;;3.80;3.40;;;12.70;92.80;;;;;;5031030;28;20444;-48
2022/04/06 07:55:07;;;;;;;3.40;3.10;;;12.90;92.20;;;;;;5050119;28;20672;-47
2022/04/06 07:57:34;;;;;;;3.33;3.03;;;13.20;91.70;;;;;;5048788;28;20474;-47
2022/04/06 08:00:21;;;;;;;2.80;2.60;;;13.40;91.20;;;;;;5048884;28;20425;-48
2022/04/06 08:02:48;;;;;;;3.10;2.60;;;13.60;90.80;;;;;;5048628;28;20771;-40
2022/04/06 08:05:16;;;;;;;3.50;3.20;;;13.70;90.30;;;;;;5047850;28;20486;-40
2022/04/06 08:07:48;;;;;;;3.10;2.77;;;13.80;88.90;;;;;;5049251;28;20869;-41
2022/04/06 08:10:16;;;;;;;2.30;2.10;;;13.80;88.50;;;;;;5046801;28;20856;-40
2022/04/06 08:12:42;;;;;;;3.67;3.10;;;13.80;87.70;;;;;;5047017;28;20975;-40
2022/04/06 08:15:08;;;;;;;4.10;2.70;;;13.80;87.60;;;;;;5042548;28;20440;-40
2022/04/06 08:17:40;;;;;;;3.10;2.47;;;13.80;87.40;;;;;;5028611;28;20472;-40
2022/04/06 08:20:08;;;;;;;2.30;1.93;;;13.80;87.20;;;;;;5029864;28;20439;-41
2022/04/06 08:22:34;;;;;;;2.40;2.10;;;13.80;87.60;;;;;;5028139;28;20421;-40
2022/04/06 08:24:59;;;;;;;2.17;1.80;;;13.90;87.50;;;;;;5049656;28;20795;-40
2022/04/06 08:27:27;;;;;;;3.10;2.00;;;14.00;87.30;;;;;;5051566;28;20522;-40
2022/04/06 08:29:54;;;;;;;1.50;1.40;;;14.30;87.00;;;;;;5048816;28;20199;-41
2022/04/06 08:32:20;;;;;;;1.97;1.40;;;14.40;85.90;;;;;;5049532;28;20764;-40
2022/04/06 08:34:46;;;;;;;2.27;1.20;;;14.50;84.20;;;;;;5049601;28;20432;-41
2022/04/06 08:37:12;;;;;;;4.33;1.47;;;14.50;83.00;;;;;;5063418;28;20219;-41
2022/04/06 08:39:38;;;;;;;2.13;1.00;;;14.40;82.80;;;;;;5062093;28;20180;-41
2022/04/06 08:42:03;;;;;;;1.07;0.70;;;14.40;82.40;;;;;;5061617;28;20544;-40
2022/04/06 08:44:29;;;;;;;1.23;0.87;;;14.50;82.50;;;;;;5059773;28;20193;-40
2022/04/06 08:46:59;;;;;;;1.20;0.83;;;14.60;82.30;;;;;;5064762;28;20247;-41
2022/04/06 08:49:25;;;;;;;1.50;1.17;;;14.90;82.00;;;;;;5060700;28;20292;-42
2022/04/06 08:51:53;;;;;;;1.20;0.80;;;15.10;80.70;;;;;;5060978;28;20791;-41
2022/04/06 08:54:19;;;;;;;1.40;0.97;;;15.20;80.00;;;;;;5058351;28;20725;-42
2022/04/06 08:56:45;;;;;;;1.30;0.97;;;15.40;79.20;;;;;;5060605;28;20560;-42
2022/04/06 08:59:12;;;;;;;2.40;1.50;;;15.70;78.60;;;;;;5060843;28;20538;-40
2022/04/06 09:01:37;;;;;;;2.10;1.03;;;16.00;77.70;;;;;;5058197;28;20189;-40
2022/04/06 09:04:03;;;;;;;2.03;0.70;;;16.20;75.80;;;;;;5048993;28;20671;-40
2022/04/06 09:06:32;;;;;;;1.60;0.80;;;16.30;72.80;;;;;;5045717;28;20412;-41
2022/04/06 09:08:58;;;;;;;1.67;0.80;;;16.30;72.30;;;;;;5047025;28;20171;-40
2022/04/06 09:11:24;;;;;;;1.60;1.10;;;16.40;71.80;;;;;;5046216;28;20413;-40
2022/04/06 09:14:02;;;;;;;3.97;1.43;;;16.40;71.00;;;;;;5047070;28;20502;-40
2022/04/06 09:16:32;;;;;;;1.80;1.23;;;16.40;70.40;;;;;;5047802;28;20830;-40
2022/04/06 09:19:10;;;;;;;1.60;0.90;;;16.40;70.60;;;;;;5043231;28;20866;-41
2022/04/06 09:21:39;;;;;;;1.30;0.93;;;16.50;70.30;;;;;;5062481;28;20524;-41
2022/04/06 09:24:05;;;;;;;1.17;0.90;;;16.50;68.70;;;;;;5062694;28;21024;-41
2022/04/06 09:26:31;;;;;;;1.20;0.97;;;16.50;68.50;;;;;;5061417;28;20494;-42
2022/04/06 09:28:57;;;;;;;1.90;1.30;;;16.40;68.00;;;;;;5049061;28;20559;-40
2022/04/06 09:31:23;;;;;;;1.80;1.27;;;16.40;68.20;;;;;;5042492;28;20447;-40
2022/04/06 09:34:02;;;;;;;1.20;0.80;;;16.50;68.20;;;;;;5059733;28;20501;-41
2022/04/06 09:36:30;;;;;;;1.67;1.23;;;16.60;68.00;;;;;;5051805;28;20577;-41
2022/04/06 09:38:55;;;;;;;3.73;1.10;;;16.80;68.10;;;;;;5058186;28;20840;-39
2022/04/06 09:41:21;;;;;;;2.10;0.80;;;17.40;67.90;;;;;;5061498;28;20766;-48
2022/04/06 09:43:48;;;;;;;1.33;1.00;;;17.80;65.30;;;;;;5060376;28;20189;-41
2022/04/06 09:49:14;;;;;;;1.10;0.70;;;18.00;61.90;;;;;;5061917;28;20422;-40
2022/04/06 09:51:41;;;;;;;1.43;0.70;;;18.30;60.70;;;;;;5065151;28;20474;-42
2022/04/06 09:54:09;;;;;;;2.03;0.80;;;18.40;59.30;;;;;;5062947;28;20450;-40
2022/04/06 09:56:36;;;;;;;1.40;1.00;;;18.40;58.40;;;;;;5063449;28;20979;-41
2022/04/06 09:59:03;;;;;;;1.10;0.80;;;18.30;58.20;;;;;;5061081;28;20432;-41
2022/04/06 10:01:36;;;;;;;1.30;0.80;;;18.10;58.10;;;;;;5062643;28;20466;-43
2022/04/06 10:04:04;;;;;;;1.30;0.83;;;17.90;58.40;;;;;;5060645;28;20551;-42
2022/04/06 10:06:34;;;;;;;1.47;0.90;;;17.80;58.60;;;;;;5063560;28;20428;-41
2022/04/06 10:09:02;;;;;;;1.10;0.73;;;17.60;58.40;;;;;;5061095;28;20435;-41
2022/04/06 10:11:28;;;;;;;1.20;0.80;;;17.50;58.70;;;;;;5061720;28;20581;-41
2022/04/06 10:13:55;;;;;;;4.10;0.90;;;17.40;58.80;;;;;;5062303;28;20560;-41
2022/04/06 10:16:21;;;;;;;1.57;0.90;;;17.50;59.20;;;;;;5060198;28;21126;-43
2022/04/06 10:18:47;;;;;;;1.40;0.80;;;17.60;59.30;;;;;;5058717;28;20757;-42
2022/04/06 10:21:22;;;;;;;0.90;0.50;;;17.70;59.10;;;;;;5057313;28;20439;-42
2022/04/06 10:24:07;;;;;;;1.57;1.13;;;18.00;58.80;;;;;;5061748;28;20423;-41
2022/04/06 10:26:51;;;;;;;1.30;0.90;;;18.20;58.00;;;;;;5057337;28;20666;-41
2022/04/06 10:29:17;;;;;;;1.40;1.10;;;18.80;57.40;;;;;;5058484;28;20948;-41
2022/04/06 10:31:46;;;;;;;1.47;0.90;;;19.70;56.90;;;;;;5060315;28;20522;-42
2022/04/06 10:34:25;;;;;;;1.60;1.13;;;20.50;55.60;;;;;;5061666;28;20296;-42
2022/04/06 10:37:12;;;;;;;1.00;0.77;;;20.80;53.80;;;;;;5059304;28;20546;-41
2022/04/06 10:39:57;;;;;;;1.40;0.70;;;21.00;53.20;;;;;;5060465;28;20536;-45
2022/04/06 10:42:32;;;;;;;3.00;1.20;;;21.00;54.30;;;;;;5062444;28;20792;-45
2022/04/06 10:44:59;;;;;;;0.97;0.70;;;21.30;53.90;;;;;;5060735;28;20669;-46
2022/04/06 10:47:25;;;;;;;3.67;0.70;;;21.60;54.30;;;;;;5062239;28;20818;-46
2022/04/06 10:50:10;;;;;;;1.20;0.73;;;22.00;52.60;;;;;;5061539;28;20789;-45
2022/04/06 10:52:36;;;;;;;1.30;0.70;;;22.60;51.00;;;;;;5050681;28;20518;-46
2022/04/06 10:55:23;;;;;;;3.00;0.80;;;23.10;49.80;;;;;;5059283;28;20489;-43
2022/04/06 10:58:08;;;;;;;1.97;0.60;;;23.70;48.20;;;;;;5064301;28;20214;-45
2022/04/06 11:00:39;;;;;;;1.40;0.80;;;24.20;46.30;;;;;;5064012;28;20474;-45
2022/04/06 11:03:15;;;;;;;1.40;0.70;;;25.00;45.60;;;;;;5060168;28;20427;-45
2022/04/06 11:05:49;;;;;;;2.33;0.93;;;25.40;44.50;;;;;;5062237;28;20466;-44
2022/04/06 11:11:47;;;;;;;3.20;1.40;;;25.20;43.30;;;;;;5059767;28;20419;-46
2022/04/06 11:14:34;;;;;;;1.17;0.80;;;25.70;43.60;;;;;;5056077;28;20745;-47
2022/04/06 11:17:00;;;;;;;4.13;0.90;;;26.20;43.20;;;;;;5057554;28;20520;-45
2022/04/06 11:19:26;;;;;;;1.53;0.67;;;26.90;41.10;;;;;;5057985;28;21012;-45
2022/04/06 11:21:55;;;;;;;1.37;0.90;;;27.40;40.00;;;;;;5059435;28;20192;-44
2022/04/06 11:24:23;;;;;;;2.10;0.90;;;27.60;39.30;;;;;;5061833;28;20526;-44
2022/04/06 11:26:50;;;;;;;1.40;0.80;;;27.90;38.80;;;;;;5063955;28;20473;-46
2022/04/06 11:29:15;;;;;;;1.33;0.80;;;28.30;38.20;;;;;;5058128;28;20729;-44
2022/04/06 11:32:00;;;;;;;1.27;0.83;;;28.80;37.30;;;;;;5048395;28;20930;-42
2022/04/06 11:34:44;;;;;;;2.40;0.73;;;29.30;37.00;;;;;;5056708;28;20416;-43
2022/04/06 11:37:09;;;;;;;1.30;0.80;;;29.80;36.00;;;;;;5057132;28;20496;-44
2022/04/06 11:39:35;;;;;;;1.30;0.80;;;30.00;35.70;;;;;;5055389;28;20420;-43
2022/04/06 11:42:03;;;;;;;1.00;0.73;;;30.10;34.70;;;;;;5057242;28;20666;-43
2022/04/06 11:44:29;;;;;;;1.10;0.73;;;30.10;33.40;;;;;;5048634;28;21718;-42
2022/04/06 11:46:56;;;;;;;1.00;0.60;;;30.40;32.80;;;;;;5060099;28;20439;-45
2022/04/06 11:49:26;;;;;;;0.90;0.60;;;30.70;32.30;;;;;;5061316;28;20405;-43
2022/04/06 11:51:55;;;;;;;0.90;0.43;;;31.20;32.10;;;;;;5056811;28;20701;-42
2022/04/06 11:54:22;;;;;;;0.90;0.50;;;31.30;31.60;;;;;;5056913;28;20563;-42
2022/04/06 11:56:52;;;;;;;1.20;0.70;;;31.70;31.30;;;;;;5057944;28;20412;-42
2022/04/06 11:59:19;;;;;;;1.30;0.80;;;32.10;30.50;;;;;;5061725;28;20419;-42
2022/04/06 12:01:46;;;;;;;1.10;0.67;;;31.80;30.00;;;;;;5060086;28;20559;-44
2022/04/06 12:04:18;;;;;;;1.27;0.60;;;31.20;30.00;;;;;;5058832;28;20741;-42
2022/04/06 12:06:44;;;;;;;2.83;2.00;;;31.30;30.10;;;;;;5061716;28;20822;-44
2022/04/06 12:09:10;;;;;;;2.73;1.47;;;31.80;30.30;;;;;;5060177;28;20401;-43
2022/04/06 12:11:36;;;;;;;1.40;0.80;;;32.30;29.80;;;;;;5061095;28;20822;-43
2022/04/06 12:14:02;;;;;;;1.57;0.90;;;32.80;29.20;;;;;;5061257;28;20192;-43
2022/04/06 12:16:29;;;;;;;1.40;0.50;;;33.00;28.90;;;;;;5058094;28;20505;-42
2022/04/06 12:18:54;;;;;;;0.90;0.40;;;33.30;28.60;;;;;;5061509;28;20659;-44
2022/04/06 12:21:21;;;;;;;1.77;0.73;;;33.40;27.80;;;;;;5061688;28;20434;-45
2022/04/06 12:23:48;;;;;;;1.00;0.60;;;33.50;27.70;;;;;;5061316;28;20220;-42
2022/04/06 12:26:15;;;;;;;1.10;0.80;;;34.00;27.70;;;;;;5063115;28;20456;-45
2022/04/06 12:28:43;;;;;;;1.67;0.70;;;34.50;27.70;;;;;;5061731;28;20660;-43
2022/04/06 12:31:10;;;;;;;1.50;0.60;;;34.30;27.60;;;;;;5055207;28;21181;-45
2022/04/06 12:33:44;;;;;;;2.00;0.80;;;34.00;27.70;;;;;;5048322;28;20441;-43
2022/04/06 12:36:24;;;;;;;1.80;0.60;;;33.90;27.70;;;;;;5060234;28;20442;-44
2022/04/06 12:39:08;;;;;;;1.13;0.60;;;33.80;27.90;;;;;;5060720;28;20501;-43
2022/04/06 12:41:35;;;;;;;1.20;0.80;;;33.70;27.60;;;;;;5063901;28;20443;-42
2022/04/06 12:44:03;;;;;;;1.10;0.50;;;33.50;27.30;;;;;;5065459;28;20452;-42
2022/04/06 12:46:55;;;;;;;1.40;0.60;;;33.60;27.40;;;;;;5062260;28;20460;-43
2022/04/06 12:49:24;;;;;;;1.00;0.60;;;34.10;27.30;;;;;;5057062;28;20861;-43
2022/04/06 12:52:02;;;;;;;1.30;0.60;;;34.40;27.20;;;;;;5057492;28;20809;-43
2022/04/06 12:54:31;;;;;;;1.40;0.70;;;34.80;27.10;;;;;;5058400;28;20665;-45
2022/04/06 12:57:13;;;;;;;1.77;0.70;;;34.60;26.60;;;;;;5048691;28;20481;-44
2022/04/06 12:59:56;;;;;;;1.20;0.60;;;34.50;26.90;;;;;;5055621;28;20804;-44
2022/04/06 13:02:32;;;;;;;1.00;0.57;;;34.20;26.80;;;;;;5059601;28;20836;-44
2022/04/06 13:05:07;;;;;;;1.10;0.60;;;34.00;26.80;;;;;;5059314;28;20441;-44
2022/04/06 13:07:35;;;;;;;1.77;0.70;;;33.00;27.10;;;;;;5059540;28;20474;-43
2022/04/06 13:10:03;;;;;;;1.77;0.90;;;32.30;27.50;;;;;;5062737;28;20523;-44